createdAt,value
2022-08-03T00:02:19.755Z,97920.95
2022-08-03T00:04:47.850Z,97918.59
2022-08-03T00:07:16.806Z,97917.88
2022-08-03T00:09:44.956Z,97919.89
2022-08-03T00:12:13.482Z,97914.63
2022-08-03T00:14:42.044Z,97916.20
2022-08-03T00:17:10.127Z,97913.43
2022-08-03T00:19:38.144Z,97914.45
2022-08-03T00:22:06.236Z,97919.42
2022-08-03T00:24:36.288Z,97922.42
2022-08-03T00:27:04.419Z,97929.48
2022-08-03T00:29:32.339Z,97929.51
2022-08-03T00:32:00.752Z,97926.19
2022-08-03T00:34:57.363Z,97927.81
2022-08-03T00:37:17.148Z,97925.73
2022-08-03T00:39:47.327Z,97926.36
2022-08-03T00:42:15.732Z,97926.52
2022-08-03T00:44:45.316Z,97927.89
2022-08-03T00:47:13.536Z,97927.73
2022-08-03T00:49:42.469Z,97927.36
2022-08-03T00:52:13.788Z,97927.30
2022-08-03T00:54:41.903Z,97925.52
2022-08-03T00:57:11.276Z,97930.89
2022-08-03T00:59:39.809Z,97929.70
2022-08-03T01:02:08.398Z,97931.11
2022-08-03T01:04:36.451Z,97927.77
2022-08-03T01:07:20.658Z,97928.36
2022-08-03T01:10:15.680Z,97932.70
2022-08-03T01:12:58.054Z,97933.27
2022-08-03T01:15:39.318Z,97931.48
2022-08-03T01:18:46.431Z,97934.19
2022-08-03T01:21:26.716Z,97935.83
2022-08-03T01:24:07.219Z,97936.27
2022-08-03T01:26:42.843Z,97934.95
2022-08-03T01:29:38.763Z,97939.29
2022-08-03T01:32:53.594Z,97933.60
2022-08-03T01:35:06.678Z,97935.84
2022-08-03T01:37:48.131Z,97934.45
2022-08-03T01:40:17.895Z,97935.36
2022-08-03T01:42:48.026Z,97932.48
2022-08-03T01:45:18.847Z,97938.33
2022-08-03T01:47:48.770Z,97939.55
2022-08-03T01:50:23.104Z,97937.37
2022-08-03T01:52:53.249Z,97936.88
2022-08-03T01:55:23.923Z,97937.16
2022-08-03T01:58:05.351Z,97934.98
2022-08-03T02:00:39.782Z,97933.66
2022-08-03T02:03:09.997Z,97931.11
2022-08-03T02:05:40.247Z,97926.46
2022-08-03T02:08:11.299Z,97925.28
2022-08-03T02:10:41.876Z,97928.65
2022-08-03T02:13:10.820Z,97927.76
2022-08-03T02:15:39.668Z,97930.05
2022-08-03T02:18:09.827Z,97928.46
2022-08-03T02:20:40.243Z,97930.75
2022-08-03T02:23:08.775Z,97930.73
2022-08-03T02:25:46.221Z,97928.96
2022-08-03T02:28:20.869Z,97929.25
2022-08-03T02:30:55.095Z,97925.61
2022-08-03T02:33:30.319Z,97926.73
2022-08-03T02:36:01.357Z,97926.35
2022-08-03T02:38:34.539Z,97926.27
2022-08-03T02:41:07.558Z,97925.73
2022-08-03T02:43:39.200Z,97922.09
2022-08-03T02:46:33.940Z,97919.92
2022-08-03T02:49:40.929Z,97916.98
2022-08-03T02:51:54.957Z,97917.13
2022-08-03T02:54:25.275Z,97919.65
2022-08-03T02:56:57.144Z,97922.50
2022-08-03T02:59:26.577Z,97927.52
2022-08-03T03:01:55.804Z,97930.16
2022-08-03T03:04:24.200Z,97931.63
2022-08-03T03:07:01.771Z,97930.40
2022-08-03T03:09:40.080Z,97929.16
2022-08-03T03:12:12.948Z,97926.77
2022-08-03T03:14:41.313Z,97924.61
2022-08-03T03:17:15.169Z,97927.41
2022-08-03T03:19:45.644Z,97928.73
2022-08-03T03:22:15.621Z,97932.19
2022-08-03T03:24:46.397Z,97932.66
2022-08-03T03:27:16.502Z,97939.46
2022-08-03T03:29:45.328Z,97944.38
2022-08-03T03:32:14.073Z,97947.16
2022-08-03T03:34:42.775Z,97948.94
2022-08-03T03:37:12.600Z,97950.09
2022-08-03T03:39:40.635Z,97948.86
2022-08-03T03:42:08.919Z,97953.89
2022-08-03T03:44:37.258Z,97954.96
2022-08-03T03:47:05.500Z,97956.88
2022-08-03T03:49:33.886Z,97954.77
2022-08-03T03:52:02.162Z,97953.57
2022-08-03T03:54:41.428Z,97951.45
2022-08-03T03:57:13.101Z,97957.19
2022-08-03T03:59:42.790Z,97966.34
2022-08-03T04:02:12.401Z,97966.13
2022-08-03T04:04:58.920Z,97965.23
2022-08-03T04:07:55.759Z,97968.58
2022-08-03T04:10:47.571Z,97973.41
2022-08-03T04:13:17.787Z,97975.61
2022-08-03T04:15:48.028Z,97977.50
2022-08-03T04:18:17.297Z,97975.73
2022-08-03T04:20:49.071Z,97974.92
2022-08-03T04:23:21.274Z,97977.42
2022-08-03T04:25:51.787Z,97983.47
2022-08-03T04:28:30.543Z,97985.33
2022-08-03T04:31:02.824Z,97989.81
2022-08-03T04:33:34.945Z,97989.80
2022-08-03T04:36:09.094Z,97990.37
2022-08-03T04:38:40.941Z,97991.73
2022-08-03T04:41:10.115Z,97991.27
2022-08-03T04:43:40.927Z,97989.84
2022-08-03T04:46:10.700Z,97993.90
2022-08-03T04:48:43.464Z,97991.43
2022-08-03T04:51:13.428Z,97991.17
2022-08-03T04:53:42.898Z,97993.22
2022-08-03T04:56:10.933Z,97994.13
2022-08-03T04:58:39.581Z,98000.06
2022-08-03T05:01:07.801Z,97997.94
2022-08-03T05:03:37.216Z,97997.27
2022-08-03T05:06:11.043Z,97992.59
2022-08-03T05:08:46.847Z,97992.93
2022-08-03T05:11:17.578Z,97992.71
2022-08-03T05:13:46.705Z,97994.45
2022-08-03T05:16:15.356Z,97993.48
2022-08-03T05:18:43.966Z,97992.91
2022-08-03T05:21:17.007Z,97994.97
2022-08-03T05:23:45.039Z,97993.31
2022-08-03T05:26:13.217Z,97995.71
2022-08-03T05:28:51.053Z,97997.78
2022-08-03T05:31:19.729Z,97999.48
2022-08-03T05:33:49.174Z,98002.02
2022-08-03T05:36:17.257Z,98000.34
2022-08-03T05:38:45.467Z,97999.71
2022-08-03T05:41:20.939Z,97998.29
2022-08-03T05:43:55.619Z,98003.92
2022-08-03T05:46:24.017Z,98004.80
2022-08-03T05:48:52.359Z,98007.62
2022-08-03T05:51:20.720Z,98008.77
2022-08-03T05:53:48.890Z,98014.75
2022-08-03T05:56:17.165Z,98017.70
2022-08-03T05:58:47.500Z,98019.88
2022-08-03T06:01:17.308Z,98019.64
2022-08-03T06:03:46.539Z,98018.02
2022-08-03T06:06:15.148Z,98017.73
2022-08-03T06:08:45.613Z,98021.02
2022-08-03T06:11:14.026Z,98026.50
2022-08-03T06:13:42.434Z,98022.27
2022-08-03T06:16:11.049Z,98021.45
2022-08-03T06:18:40.655Z,98021.43
2022-08-03T06:21:15.646Z,98021.52
2022-08-03T06:23:52.835Z,98019.23
2022-08-03T06:26:28.054Z,98017.48
2022-08-03T06:28:56.829Z,98019.39
2022-08-03T06:31:32.479Z,98017.80
2022-08-03T06:34:32.275Z,98018.11
2022-08-03T06:36:53.013Z,98019.59
2022-08-03T06:39:23.433Z,98015.81
2022-08-03T06:41:53.644Z,98014.48
2022-08-03T06:44:21.716Z,98008.04
2022-08-03T06:46:49.873Z,98005.13
2022-08-03T06:49:17.951Z,98006.95
2022-08-03T06:52:37.069Z,98004.94
2022-08-03T06:54:34.354Z,98001.45
2022-08-03T06:57:02.417Z,98003.37
2022-08-03T07:00:08.445Z,98001.81
2022-08-03T07:02:21.795Z,97997.58
2022-08-03T07:04:50.301Z,97989.11
2022-08-03T07:07:19.524Z,97988.59
2022-08-03T07:09:55.718Z,97986.89
2022-08-03T07:12:28.498Z,97988.08
2022-08-03T07:15:00.868Z,97984.98
2022-08-03T07:17:33.838Z,97983.00
2022-08-03T07:20:05.724Z,97980.45
2022-08-03T07:22:34.390Z,97983.68
2022-08-03T07:25:03.392Z,97982.67
2022-08-03T07:27:31.472Z,97980.08
2022-08-03T07:29:59.669Z,97975.14
2022-08-03T07:32:31.708Z,97976.91
2022-08-03T07:35:01.137Z,97977.77
2022-08-03T07:37:30.678Z,97976.86
2022-08-03T07:40:02.467Z,97979.64
2022-08-03T07:42:31.469Z,97977.34
2022-08-03T07:45:00.352Z,97980.60
2022-08-03T07:47:35.084Z,97979.75
2022-08-03T07:50:06.571Z,97978.80
2022-08-03T07:52:53.217Z,97978.86
2022-08-03T07:55:24.168Z,97978.92
2022-08-03T07:58:06.268Z,97982.03
2022-08-03T08:00:34.472Z,97979.65
2022-08-03T08:03:03.115Z,97980.75
2022-08-03T08:05:31.999Z,97981.77
2022-08-03T08:08:01.455Z,97980.93
2022-08-03T08:10:29.986Z,97978.73
2022-08-03T08:12:58.036Z,97980.27
2022-08-03T08:15:26.263Z,97981.00
2022-08-03T08:17:57.272Z,97980.23
2022-08-03T08:20:34.272Z,97983.53
2022-08-03T08:23:09.534Z,97978.96
2022-08-03T08:25:50.192Z,97978.02
2022-08-03T08:28:22.276Z,97974.86
2022-08-03T08:31:10.038Z,97971.25
2022-08-03T08:34:02.543Z,97966.86
2022-08-03T08:36:26.219Z,97969.96
2022-08-03T08:38:54.217Z,97968.36
2022-08-03T08:41:22.235Z,97966.80
2022-08-03T08:43:50.439Z,97968.58
2022-08-03T08:46:23.747Z,97969.97
2022-08-03T08:48:54.598Z,97970.70
2022-08-03T08:51:43.854Z,97969.52
2022-08-03T08:54:21.043Z,97969.61
2022-08-03T08:56:52.484Z,97963.56
2022-08-03T08:59:21.903Z,97963.59
2022-08-03T09:01:49.853Z,97962.33
2022-08-03T09:04:17.943Z,97961.95
2022-08-03T09:07:04.404Z,97959.73
2022-08-03T09:10:11.709Z,97959.45
2022-08-03T09:12:40.847Z,97963.21
2022-08-03T09:15:18.080Z,97960.63
2022-08-03T09:17:50.669Z,97956.42
2022-08-03T09:20:25.275Z,97954.43
2022-08-03T09:22:57.761Z,97957.31
2022-08-03T09:25:30.190Z,97955.41
2022-08-03T09:28:11.166Z,97952.61
2022-08-03T09:30:44.258Z,97951.25
2022-08-03T09:33:16.427Z,97950.99
2022-08-03T09:35:54.545Z,97950.14
2022-08-03T09:38:26.345Z,97949.52
2022-08-03T09:41:00.060Z,97945.60
2022-08-03T09:43:29.432Z,97949.64
2022-08-03T09:46:07.432Z,97948.00
2022-08-03T09:48:36.949Z,97943.45
2022-08-03T09:51:13.846Z,97943.57
2022-08-03T09:53:59.167Z,97938.91
2022-08-03T09:56:42.140Z,97940.25
2022-08-03T09:59:11.989Z,97940.63
2022-08-03T10:01:48.158Z,97939.02
2022-08-03T10:04:19.657Z,97935.91
2022-08-03T10:07:01.693Z,97935.54
2022-08-03T10:09:32.289Z,97933.69
2022-08-03T10:12:21.353Z,97932.54
2022-08-03T10:14:49.675Z,97929.34
2022-08-03T10:17:17.839Z,97929.07
2022-08-03T10:19:47.455Z,97926.40
2022-08-03T10:22:19.150Z,97919.23
2022-08-03T10:25:00.334Z,97917.61
2022-08-03T10:27:34.411Z,97918.08
2022-08-03T10:30:06.460Z,97920.02
2022-08-03T10:32:37.760Z,97913.99
2022-08-03T10:35:21.047Z,97917.67
2022-08-03T10:37:56.666Z,97920.96
2022-08-03T10:40:48.181Z,97920.46
2022-08-03T10:43:41.051Z,97914.17
2022-08-03T10:46:09.069Z,97908.17
2022-08-03T10:48:37.533Z,97908.20
2022-08-03T10:51:06.973Z,97906.83
2022-08-03T10:53:40.521Z,97906.23
2022-08-03T10:56:52.765Z,97902.70
2022-08-03T10:59:53.069Z,97899.35
2022-08-03T11:02:21.079Z,97895.48
2022-08-03T11:05:30.565Z,97897.49
2022-08-03T11:08:21.494Z,97893.54
2022-08-03T11:10:51.750Z,97893.80
2022-08-03T11:13:21.549Z,97889.71
2022-08-03T11:15:52.092Z,97889.35
2022-08-03T11:18:21.011Z,97886.44
2022-08-03T11:20:59.846Z,97886.58
2022-08-03T11:24:05.493Z,97878.27
2022-08-03T11:26:36.711Z,97879.56
2022-08-03T11:29:29.097Z,97877.33
2022-08-03T11:31:57.198Z,97873.02
2022-08-03T11:34:26.822Z,97876.05
2022-08-03T11:37:29.919Z,97869.58
2022-08-03T11:40:02.381Z,97865.23
2022-08-03T11:42:45.333Z,97861.99
2022-08-03T11:45:13.715Z,97863.94
2022-08-03T11:47:50.460Z,97859.80
2022-08-03T11:50:24.084Z,97857.33
2022-08-03T11:52:52.403Z,97856.66
2022-08-03T11:55:22.283Z,97848.34
2022-08-03T11:59:16.400Z,97845.50
2022-08-03T12:00:38.517Z,97841.66
2022-08-03T12:03:09.366Z,97841.48
2022-08-03T12:05:51.151Z,97841.02
2022-08-03T12:08:33.419Z,97841.46
2022-08-03T12:11:09.653Z,97838.66
2022-08-03T12:13:56.623Z,97837.57
2022-08-03T12:16:29.199Z,97837.02
2022-08-03T12:19:03.605Z,97832.49
2022-08-03T12:21:32.818Z,97831.94
2022-08-03T12:24:03.732Z,97828.26
2022-08-03T12:26:45.469Z,97826.33
2022-08-03T12:29:30.019Z,97826.55
2022-08-03T12:31:58.177Z,97822.23
2022-08-03T12:34:49.427Z,97820.12
2022-08-03T12:37:23.693Z,97820.86
2022-08-03T12:40:05.197Z,97816.61
2022-08-03T12:42:39.535Z,97818.54
2022-08-03T12:45:28.646Z,97820.90
2022-08-03T12:47:59.991Z,97820.81
2022-08-03T12:50:41.788Z,97819.90
2022-08-03T12:53:10.781Z,97814.73
2022-08-03T12:55:57.416Z,97818.10
2022-08-03T12:58:36.254Z,97819.14
2022-08-03T13:01:09.595Z,97819.50
2022-08-03T13:03:43.209Z,97817.14
2022-08-03T13:06:22.908Z,97818.90
2022-08-03T13:09:03.762Z,97819.00
2022-08-03T13:11:55.645Z,97819.09
2022-08-03T13:14:23.629Z,97819.30
2022-08-03T13:16:51.993Z,97813.46
2022-08-03T13:19:20.052Z,97809.20
2022-08-03T13:22:03.615Z,97817.85
2022-08-03T13:24:33.458Z,97809.73
2022-08-03T13:28:01.936Z,97812.42
2022-08-03T13:29:53.062Z,97807.89
2022-08-03T13:32:21.704Z,97805.89
2022-08-03T13:34:50.041Z,97803.41
2022-08-03T13:37:18.265Z,97793.23
2022-08-03T13:39:57.457Z,97788.80
2022-08-03T13:42:33.626Z,97792.51
2022-08-03T13:45:02.980Z,97791.50
2022-08-03T13:47:31.503Z,97788.31
2022-08-03T13:50:04.215Z,97787.77
2022-08-03T13:52:36.152Z,97789.06
2022-08-03T13:55:06.008Z,97786.27
2022-08-03T13:58:02.560Z,97790.41
2022-08-03T14:00:29.650Z,97790.92
2022-08-03T14:03:17.377Z,97797.57
2022-08-03T14:05:45.437Z,97799.30
2022-08-03T14:08:13.586Z,97792.78
2022-08-03T14:10:44.062Z,97793.77
2022-08-03T14:13:18.059Z,97791.27
2022-08-03T14:15:49.946Z,97790.90
2022-08-03T14:18:28.924Z,97789.21
2022-08-03T14:21:06.617Z,97788.89
2022-08-03T14:23:42.150Z,97788.92
2022-08-03T14:26:14.561Z,97792.36
2022-08-03T14:28:49.528Z,97791.58
2022-08-03T14:32:10.158Z,97791.15
2022-08-03T14:34:05.844Z,97787.49
2022-08-03T14:36:33.920Z,97786.79
2022-08-03T14:39:03.757Z,97787.14
2022-08-03T14:41:31.753Z,97785.92
2022-08-03T14:44:01.579Z,97780.65
2022-08-03T14:46:31.894Z,97782.50
2022-08-03T14:50:29.095Z,97779.83
2022-08-03T14:51:51.354Z,97776.80
2022-08-03T14:54:23.039Z,97775.95
2022-08-03T14:56:51.556Z,97772.32
2022-08-03T14:59:19.657Z,97769.35
2022-08-03T15:02:05.331Z,97769.70
2022-08-03T15:04:35.877Z,97766.90
2022-08-03T15:07:04.286Z,97766.62
2022-08-03T15:09:33.170Z,97767.42
2022-08-03T15:12:01.366Z,97766.70
2022-08-03T15:14:37.858Z,97767.46
2022-08-03T15:17:06.846Z,97767.35
2022-08-03T15:20:01.243Z,97766.67
2022-08-03T15:22:24.988Z,97767.23
2022-08-03T15:26:28.841Z,97767.48
2022-08-03T15:28:03.399Z,97768.25
2022-08-03T15:30:36.115Z,97767.73
2022-08-03T15:33:05.994Z,97766.29
2022-08-03T15:35:34.135Z,97764.33
2022-08-03T15:38:06.070Z,97761.60
2022-08-03T15:40:39.795Z,97758.54
2022-08-03T15:43:08.381Z,97755.80
2022-08-03T15:45:37.513Z,97752.83
2022-08-03T15:48:06.373Z,97754.34
2022-08-03T15:50:34.628Z,97749.86
2022-08-03T15:53:02.942Z,97751.05
2022-08-03T15:55:31.590Z,97749.83
2022-08-03T15:59:10.513Z,97751.08
2022-08-03T16:00:47.657Z,97746.17
2022-08-03T16:03:15.682Z,97748.19
2022-08-03T16:05:43.680Z,97754.04
2022-08-03T16:08:13.808Z,97752.69
2022-08-03T16:10:42.579Z,97751.98
2022-08-03T16:13:10.631Z,97750.95
2022-08-03T16:15:39.277Z,97756.46
2022-08-03T16:18:07.683Z,97752.34
2022-08-03T16:20:35.804Z,97757.74
2022-08-03T16:23:09.188Z,97755.03
2022-08-03T16:25:40.523Z,97753.33
2022-08-03T16:28:13.755Z,97758.01
2022-08-03T16:30:44.341Z,97754.85
2022-08-03T16:33:16.954Z,97758.30
2022-08-03T16:35:49.782Z,97759.26
2022-08-03T16:38:19.440Z,97759.41
2022-08-03T16:40:51.956Z,97762.89
2022-08-03T16:43:22.589Z,97764.18
2022-08-03T16:45:51.277Z,97768.97
2022-08-03T16:48:19.409Z,97767.99
2022-08-03T16:50:49.152Z,97767.35
2022-08-03T16:53:51.632Z,97773.92
2022-08-03T16:56:09.907Z,97779.48
2022-08-03T16:58:42.524Z,97785.20
2022-08-03T17:01:21.457Z,97785.64
2022-08-03T17:04:02.478Z,97787.45
2022-08-03T17:06:36.535Z,97789.06
2022-08-03T17:09:11.800Z,97787.08
2022-08-03T17:11:46.578Z,97786.70
2022-08-03T17:14:22.905Z,97789.45
2022-08-03T17:17:01.453Z,97791.13
2022-08-03T17:19:39.661Z,97789.88
2022-08-03T17:22:12.785Z,97792.97
2022-08-03T17:24:53.745Z,97794.21
2022-08-03T17:28:51.234Z,97793.74
2022-08-03T17:30:18.861Z,97798.37
2022-08-03T17:32:52.674Z,97798.05
2022-08-03T17:35:36.689Z,97798.44
2022-08-03T17:38:15.825Z,97798.58
2022-08-03T17:40:52.204Z,97801.36
2022-08-03T17:44:14.442Z,97802.90
2022-08-03T17:46:10.819Z,97798.45
2022-08-03T17:48:45.153Z,97803.09
2022-08-03T17:51:17.243Z,97805.05
2022-08-03T17:54:18.152Z,97809.60
2022-08-03T17:58:02.818Z,97811.21
2022-08-03T18:00:45.679Z,97817.05
2022-08-03T18:03:23.184Z,97818.35
2022-08-03T18:06:11.057Z,97820.55
2022-08-03T18:08:55.209Z,97827.56
2022-08-03T18:11:35.782Z,97830.85
2022-08-03T18:14:17.386Z,97832.41
2022-08-03T18:17:10.547Z,97840.57
2022-08-03T18:20:03.212Z,97845.15
2022-08-03T18:22:37.061Z,97847.83
2022-08-03T18:25:10.732Z,97854.27
2022-08-03T18:27:47.633Z,97853.84
2022-08-03T18:30:17.681Z,97855.60
2022-08-03T18:33:00.669Z,97859.94
2022-08-03T18:35:53.907Z,97860.59
2022-08-03T18:38:26.058Z,97862.05
2022-08-03T18:40:56.245Z,97863.34
2022-08-03T18:43:46.574Z,97866.30
2022-08-03T18:46:41.006Z,97870.09
2022-08-03T18:49:34.201Z,97874.98
2022-08-03T18:52:12.295Z,97877.48
2022-08-03T18:55:19.912Z,97881.84
2022-08-03T18:58:08.036Z,97886.87
2022-08-03T19:01:05.249Z,97888.58
2022-08-03T19:04:18.219Z,97890.45
2022-08-03T19:07:08.821Z,97892.23
2022-08-03T19:09:39.848Z,97894.93
2022-08-03T19:12:32.562Z,97896.20
2022-08-03T19:15:13.489Z,97903.02
2022-08-03T19:17:50.072Z,97901.96
2022-08-03T19:20:27.471Z,97903.30
2022-08-03T19:22:59.028Z,97903.58
2022-08-03T19:25:34.886Z,97904.48
2022-08-03T19:28:06.036Z,97908.79
2022-08-03T19:30:38.528Z,97908.70
2022-08-03T19:33:13.323Z,97911.88
2022-08-03T19:35:51.447Z,97910.28
2022-08-03T19:38:32.231Z,97912.81
2022-08-03T19:41:03.695Z,97913.94
2022-08-03T19:43:53.876Z,97914.90
2022-08-03T19:46:31.032Z,97915.86
2022-08-03T19:49:15.469Z,97917.66
2022-08-03T19:52:00.654Z,97918.14
2022-08-03T19:54:49.354Z,97919.03
2022-08-03T19:57:24.666Z,97918.30
2022-08-03T19:59:57.282Z,97914.77
2022-08-03T20:02:27.986Z,97916.80
2022-08-03T20:05:14.909Z,97916.23
2022-08-03T20:07:48.540Z,97915.67
2022-08-03T20:10:20.971Z,97920.98
2022-08-03T20:12:49.921Z,97919.20
2022-08-03T20:15:31.326Z,97919.70
2022-08-03T20:18:01.974Z,97916.19
2022-08-03T20:20:36.583Z,97915.53
2022-08-03T20:23:11.509Z,97913.59
2022-08-03T20:25:48.609Z,97916.17
2022-08-03T20:28:50.241Z,97917.95
2022-08-03T20:31:36.453Z,97914.40
2022-08-03T20:34:06.598Z,97917.27
2022-08-03T20:36:34.865Z,97913.50
2022-08-03T20:39:07.534Z,97916.91
2022-08-03T20:41:41.049Z,97916.03
2022-08-03T20:44:09.175Z,97916.95
2022-08-03T20:46:55.013Z,97916.80
2022-08-03T20:49:27.288Z,97915.03
2022-08-03T20:51:55.341Z,97913.15
2022-08-03T20:54:29.118Z,97911.40
2022-08-03T20:57:04.439Z,97913.65
2022-08-03T20:59:50.352Z,97917.30
2022-08-03T21:02:31.214Z,97919.32
2022-08-03T21:05:03.767Z,97918.57
2022-08-03T21:08:06.456Z,97920.45
2022-08-03T21:10:40.648Z,97923.99
2022-08-03T21:13:24.045Z,97928.11
2022-08-03T21:16:04.732Z,97933.30
2022-08-03T21:18:48.962Z,97935.92
2022-08-03T21:21:19.531Z,97935.27
2022-08-03T21:23:53.314Z,97937.64
2022-08-03T21:26:24.957Z,97937.36
2022-08-03T21:29:00.148Z,97936.27
2022-08-03T21:31:30.498Z,97939.35
2022-08-03T21:34:02.334Z,97941.70
2022-08-03T21:36:33.219Z,97943.90
2022-08-03T21:39:02.391Z,97944.20
2022-08-03T21:41:32.165Z,97945.73
2022-08-03T21:44:02.080Z,97946.88
2022-08-03T21:46:35.414Z,97947.49
2022-08-03T21:50:05.893Z,97952.50
2022-08-03T21:52:02.988Z,97956.77
2022-08-03T21:54:54.306Z,97960.84
2022-08-03T21:57:26.534Z,97961.27
2022-08-03T22:00:08.893Z,97960.04
2022-08-03T22:02:54.481Z,97959.80
2022-08-03T22:05:42.402Z,97956.52
2022-08-03T22:08:14.917Z,97960.83
2022-08-03T22:10:47.504Z,97958.98
2022-08-03T22:13:44.120Z,97958.70
2022-08-03T22:16:13.663Z,97957.79
2022-08-03T22:18:44.356Z,97955.79
2022-08-03T22:21:15.972Z,97955.89
2022-08-03T22:23:59.525Z,97955.50
2022-08-03T22:26:34.919Z,97957.10
2022-08-03T22:29:18.629Z,97957.71
2022-08-03T22:31:58.341Z,97958.96
2022-08-03T22:34:29.851Z,97962.22
2022-08-03T22:37:02.320Z,97964.31
2022-08-03T22:39:31.281Z,97966.83
2022-08-03T22:41:59.848Z,97967.71
2022-08-03T22:44:28.609Z,97968.41
2022-08-03T22:46:59.744Z,97973.39
2022-08-03T22:49:29.501Z,97970.72
2022-08-03T22:51:58.565Z,97969.98
2022-08-03T22:54:26.728Z,97968.10
2022-08-03T22:56:55.315Z,97970.80
2022-08-03T22:59:41.437Z,97977.09
2022-08-03T23:02:20.767Z,97975.42
2022-08-03T23:04:57.646Z,97974.06
2022-08-03T23:07:33.025Z,97976.45
2022-08-03T23:10:03.847Z,97974.84
2022-08-03T23:12:44.139Z,97972.33
2022-08-03T23:15:13.587Z,97976.38
2022-08-03T23:18:03.453Z,97978.10
2022-08-03T23:20:32.175Z,97974.81
2022-08-03T23:23:04.954Z,97977.86
2022-08-03T23:25:34.463Z,97980.38
2022-08-03T23:28:05.487Z,97980.00
2022-08-03T23:30:41.522Z,97977.52
2022-08-03T23:33:12.969Z,97979.48
2022-08-03T23:36:20.178Z,97984.02
2022-08-03T23:38:47.157Z,97985.60
2022-08-03T23:41:17.618Z,97984.67
2022-08-03T23:43:52.421Z,97985.20
2022-08-03T23:46:23.752Z,97986.27
2022-08-03T23:49:00.444Z,97985.06
2022-08-03T23:51:54.370Z,97985.20
2022-08-03T23:54:28.806Z,97990.79
2022-08-03T23:57:04.857Z,97991.34
